Time;durP1;ratioP1;P1;durP2;ratioP2;P2;SDS_P1;SDS_P2;PMS_P1;PMS_P2;Temp;Humidity;BMP_temperature;BMP_pressure;BME280_temperature;BME280_humidity;BME280_pressure;Samples;Min_cycle;Max_cycle;Signal;HPM_P1;HPM_P2
2021/07/02 00:00:32;;;;;;;0.40;0.37;;;16.60;99.90;;;;;;5036732;28;20217;-85
2021/07/02 00:02:59;;;;;;;0.63;0.50;;;16.70;99.90;;;;;;5049075;28;20213;-88
2021/07/02 00:05:28;;;;;;;2.53;0.90;;;16.50;99.90;;;;;;5039439;28;20207;-85
2021/07/02 00:07:53;;;;;;;0.93;0.60;;;16.60;99.90;;;;;;5053041;28;20303;-86
2021/07/02 00:10:19;;;;;;;1.20;0.20;;;16.50;99.90;;;;;;5036583;28;20208;-86
2021/07/02 00:12:45;;;;;;;0.40;0.40;;;16.50;99.90;;;;;;5055238;28;20273;-86
2021/07/02 00:15:12;;;;;;;2.37;0.70;;;16.20;99.90;;;;;;5053165;28;20184;-86
2021/07/02 00:17:39;;;;;;;0.40;0.20;;;16.00;99.90;;;;;;5036301;28;20282;-87
2021/07/02 00:20:05;;;;;;;1.53;0.83;;;16.00;99.90;;;;;;5036245;28;20192;-86
2021/07/02 00:22:33;;;;;;;1.23;0.60;;;15.90;99.90;;;;;;5036626;28;20238;-86
2021/07/02 00:24:59;;;;;;;0.30;0.30;;;15.80;99.90;;;;;;5036076;28;20193;-87
2021/07/02 00:27:25;;;;;;;1.33;0.43;;;15.80;99.90;;;;;;5053668;28;20200;-87
2021/07/02 00:29:50;;;;;;;0.60;0.60;;;15.80;99.90;;;;;;5054075;28;20176;-86
2021/07/02 00:32:16;;;;;;;0.60;0.60;;;15.90;99.90;;;;;;5060759;28;20847;-86
2021/07/02 00:34:42;;;;;;;0.83;0.37;;;16.00;99.90;;;;;;5036686;28;20718;-86
2021/07/02 00:37:07;;;;;;;0.40;0.40;;;16.00;99.90;;;;;;5036629;28;20608;-86
2021/07/02 00:39:33;;;;;;;0.40;0.40;;;16.10;99.90;;;;;;5036591;28;20246;-87
2021/07/02 00:41:59;;;;;;;1.90;0.80;;;16.20;99.90;;;;;;5038540;28;20185;-86
2021/07/02 00:44:46;;;;;;;0.50;0.30;;;16.00;99.90;;;;;;5036830;28;20190;-86
2021/07/02 00:47:13;;;;;;;0.20;0.20;;;15.90;99.90;;;;;;5056734;28;20206;-86
2021/07/02 00:49:39;;;;;;;0.57;0.40;;;16.00;99.90;;;;;;5040898;28;20219;-86
2021/07/02 00:52:07;;;;;;;0.57;0.57;;;16.00;99.90;;;;;;5042528;28;20203;-85
2021/07/02 00:54:34;;;;;;;0.43;0.43;;;16.00;99.90;;;;;;5040414;28;20695;-88
2021/07/02 00:57:02;;;;;;;0.23;0.23;;;16.00;99.90;;;;;;5040362;28;20669;-86
2021/07/02 00:59:27;;;;;;;0.80;0.53;;;15.90;99.90;;;;;;5042104;28;20553;-86
2021/07/02 01:01:53;;;;;;;0.50;0.50;;;15.90;99.90;;;;;;5040854;28;20179;-87
2021/07/02 01:04:19;;;;;;;0.53;0.50;;;15.90;99.90;;;;;;5055006;28;20194;-86
2021/07/02 01:06:53;;;;;;;0.37;0.37;;;15.90;99.90;;;;;;5039875;28;20247;-86
2021/07/02 01:09:20;;;;;;;0.40;0.40;;;15.80;99.90;;;;;;5056985;28;20211;-86
2021/07/02 01:11:46;;;;;;;0.20;0.20;;;15.70;99.90;;;;;;5040786;28;20191;-86
2021/07/02 01:14:11;;;;;;;0.30;0.30;;;15.70;99.90;;;;;;5040586;28;20199;-86
2021/07/02 01:16:38;;;;;;;0.40;0.40;;;15.70;99.90;;;;;;5039993;28;20211;-86
2021/07/02 01:19:04;;;;;;;2.73;0.57;;;15.60;99.90;;;;;;5057706;28;20563;-86
2021/07/02 01:21:30;;;;;;;0.20;0.20;;;15.70;99.90;;;;;;5039919;28;20190;-86
2021/07/02 01:23:55;;;;;;;0.50;0.50;;;15.80;99.90;;;;;;5040083;28;20208;-86
2021/07/02 01:26:22;;;;;;;0.47;0.47;;;15.80;99.90;;;;;;5057416;28;20235;-86
2021/07/02 01:28:48;;;;;;;0.27;0.27;;;15.80;99.90;;;;;;5045968;28;20269;-85
2021/07/02 01:31:14;;;;;;;0.63;0.40;;;15.80;99.90;;;;;;5039421;28;20245;-86
2021/07/02 01:33:40;;;;;;;0.20;0.20;;;15.80;99.90;;;;;;5040044;28;20199;-87
2021/07/02 01:36:25;;;;;;;0.27;0.27;;;15.80;99.90;;;;;;5039314;28;20179;-86
2021/07/02 01:38:52;;;;;;;0.97;0.90;;;15.80;99.90;;;;;;5049256;28;20190;-86
2021/07/02 01:41:18;;;;;;;0.57;0.33;;;16.00;99.90;;;;;;5039889;28;20279;-86
2021/07/02 01:43:44;;;;;;;0.43;0.30;;;16.00;99.90;;;;;;5039652;28;20289;-86
2021/07/02 01:46:10;;;;;;;0.30;0.30;;;16.20;99.90;;;;;;5039159;28;20193;-86
2021/07/02 01:48:36;;;;;;;0.43;0.30;;;16.30;99.90;;;;;;5056807;28;20211;-85
2021/07/02 01:51:01;;;;;;;0.53;0.43;;;16.40;99.90;;;;;;5039793;28;20222;-86
2021/07/02 01:53:27;;;;;;;0.53;0.40;;;16.50;99.90;;;;;;5039275;28;20200;-86
2021/07/02 01:55:53;;;;;;;0.30;0.30;;;16.60;99.90;;;;;;5039451;28;20300;-86
2021/07/02 01:58:19;;;;;;;0.83;0.50;;;16.60;99.90;;;;;;5055916;28;20212;-85
2021/07/02 02:00:45;;;;;;;0.60;0.60;;;16.60;99.90;;;;;;5057298;28;20189;-86
2021/07/02 02:03:10;;;;;;;0.47;0.47;;;16.70;99.90;;;;;;5039794;28;20211;-86
2021/07/02 02:05:51;;;;;;;0.73;0.57;;;16.70;99.90;;;;;;5039263;28;20218;-86
2021/07/02 02:08:17;;;;;;;0.30;0.30;;;16.70;99.90;;;;;;5054500;28;20208;-86
2021/07/02 02:10:43;;;;;;;0.53;0.43;;;16.70;99.90;;;;;;5059428;28;20187;-86
2021/07/02 02:13:08;;;;;;;0.60;0.60;;;16.60;99.90;;;;;;5039731;28;20573;-86
2021/07/02 02:15:34;;;;;;;1.07;0.90;;;16.60;99.90;;;;;;5055856;28;20648;-86
2021/07/02 02:18:00;;;;;;;0.30;0.30;;;16.60;99.90;;;;;;5055227;28;20331;-86
2021/07/02 02:20:27;;;;;;;0.30;0.30;;;16.60;99.90;;;;;;5039118;28;20733;-86
2021/07/02 02:22:52;;;;;;;0.50;0.50;;;16.70;99.90;;;;;;5038727;28;20208;-86
2021/07/02 02:25:18;;;;;;;0.43;0.43;;;16.70;99.90;;;;;;5038793;28;20557;-86
2021/07/02 02:27:47;;;;;;;0.40;0.40;;;16.70;99.90;;;;;;5038852;28;20213;-86
2021/07/02 02:30:13;;;;;;;0.50;0.33;;;16.60;99.90;;;;;;5055877;28;20185;-86
2021/07/02 02:32:40;;;;;;;0.70;0.70;;;16.70;99.90;;;;;;5054847;28;20208;-86
2021/07/02 02:35:06;;;;;;;1.03;0.53;;;16.70;99.90;;;;;;5038352;28;20590;-86
2021/07/02 02:37:32;;;;;;;0.23;0.23;;;16.70;99.90;;;;;;5037534;28;20185;-87
2021/07/02 02:39:58;;;;;;;0.43;0.40;;;16.70;99.90;;;;;;5055139;28;20184;-87
2021/07/02 02:42:23;;;;;;;0.50;0.30;;;16.60;99.90;;;;;;5037400;28;20295;-86
2021/07/02 02:44:49;;;;;;;0.27;0.27;;;16.60;99.90;;;;;;5056294;28;20213;-86
2021/07/02 02:47:14;;;;;;;0.60;0.60;;;16.60;99.90;;;;;;5037862;28;20178;-86
2021/07/02 02:49:40;;;;;;;0.50;0.50;;;16.60;99.90;;;;;;5056248;28;20291;-86
2021/07/02 02:52:06;;;;;;;0.13;0.13;;;16.60;99.90;;;;;;5027204;28;20202;-87
2021/07/02 02:54:31;;;;;;;0.43;0.43;;;16.60;99.90;;;;;;5038159;28;20228;-86
2021/07/02 02:57:09;;;;;;;0.60;0.60;;;16.70;99.90;;;;;;5037852;28;20190;-86
2021/07/02 02:59:38;;;;;;;0.20;0.20;;;16.80;99.90;;;;;;5038089;28;20648;-86
2021/07/02 03:02:04;;;;;;;1.60;0.70;;;16.80;99.90;;;;;;5037824;28;20209;-86
2021/07/02 03:04:32;;;;;;;0.40;0.37;;;16.90;99.90;;;;;;5055951;28;20176;-86
2021/07/02 03:06:58;;;;;;;0.60;0.60;;;16.90;99.90;;;;;;5037776;28;20189;-86
2021/07/02 03:09:23;;;;;;;0.20;0.20;;;16.90;99.90;;;;;;5055686;28;20208;-86
2021/07/02 03:11:51;;;;;;;1.50;0.60;;;16.90;99.90;;;;;;5035547;28;20205;-86
2021/07/02 03:14:21;;;;;;;0.83;0.60;;;16.90;99.90;;;;;;5040616;28;20185;-86
2021/07/02 03:16:50;;;;;;;0.20;0.20;;;16.80;99.90;;;;;;5055404;28;20174;-87
2021/07/02 03:19:17;;;;;;;1.40;0.57;;;16.80;99.90;;;;;;5037938;28;20185;-86
2021/07/02 03:21:43;;;;;;;0.77;0.50;;;16.90;99.90;;;;;;5037512;28;20592;-86
2021/07/02 03:24:10;;;;;;;1.80;0.30;;;16.80;99.90;;;;;;5054407;28;20557;-86
2021/07/02 03:26:36;;;;;;;0.40;0.33;;;16.80;99.90;;;;;;5054975;28;20267;-90
2021/07/02 03:29:04;;;;;;;0.63;0.30;;;16.70;99.90;;;;;;5055324;28;20209;-86
2021/07/02 03:31:29;;;;;;;0.43;0.43;;;16.70;99.90;;;;;;5037459;28;20188;-86
2021/07/02 03:33:55;;;;;;;0.50;0.50;;;16.60;99.90;;;;;;5037781;28;20688;-86
2021/07/02 03:36:21;;;;;;;0.43;0.43;;;16.60;99.90;;;;;;5036843;28;20190;-85
2021/07/02 03:38:47;;;;;;;0.40;0.30;;;16.50;99.90;;;;;;5052381;28;20187;-85
2021/07/02 03:41:12;;;;;;;0.20;0.20;;;16.50;99.90;;;;;;5039174;28;20185;-85
2021/07/02 03:43:38;;;;;;;0.40;0.33;;;16.40;99.90;;;;;;5042139;28;20216;-85
2021/07/02 03:46:04;;;;;;;0.23;0.23;;;16.30;99.90;;;;;;5050104;28;20299;-85
2021/07/02 03:48:29;;;;;;;0.83;0.83;;;16.20;99.90;;;;;;5035266;28;20212;-86
2021/07/02 03:50:55;;;;;;;0.50;0.50;;;16.20;99.90;;;;;;5038042;28;20529;-86
2021/07/02 03:53:21;;;;;;;0.50;0.50;;;16.20;99.90;;;;;;5054957;28;20258;-85
2021/07/02 03:55:46;;;;;;;0.27;0.27;;;16.20;99.90;;;;;;5038313;28;20267;-85
2021/07/02 03:58:12;;;;;;;0.30;0.30;;;16.10;99.90;;;;;;5037673;28;20188;-86
2021/07/02 04:00:38;;;;;;;0.50;0.50;;;16.10;99.90;;;;;;5050344;28;20189;-86
2021/07/02 04:03:03;;;;;;;0.20;0.20;;;16.00;99.90;;;;;;5046728;28;20213;-86
2021/07/02 04:05:29;;;;;;;0.60;0.30;;;16.00;99.90;;;;;;5055231;28;20203;-85
2021/07/02 04:07:55;;;;;;;2.53;0.40;;;16.00;99.90;;;;;;5037809;28;20242;-85
2021/07/02 04:10:20;;;;;;;0.50;0.50;;;16.10;99.90;;;;;;5042797;28;20193;-85
2021/07/02 04:12:46;;;;;;;0.73;0.70;;;16.10;99.90;;;;;;5037213;28;20223;-86
2021/07/02 04:15:12;;;;;;;0.23;0.23;;;16.10;99.90;;;;;;5037631;28;20559;-86
2021/07/02 04:17:38;;;;;;;0.50;0.50;;;16.10;99.90;;;;;;5053979;28;20188;-85
2021/07/02 04:20:13;;;;;;;0.60;0.37;;;16.20;99.90;;;;;;5055796;28;20246;-86
2021/07/02 04:22:39;;;;;;;0.83;0.80;;;16.40;99.90;;;;;;5054860;28;20211;-85
2021/07/02 04:25:08;;;;;;;0.43;0.43;;;16.60;99.90;;;;;;5054975;28;20191;-86
2021/07/02 04:27:34;;;;;;;0.43;0.43;;;16.70;99.90;;;;;;5059907;28;20190;-85
2021/07/02 04:30:01;;;;;;;0.30;0.30;;;16.90;99.90;;;;;;5038265;28;20192;-85
2021/07/02 04:32:27;;;;;;;0.60;0.50;;;17.10;99.90;;;;;;5038176;28;20338;-86
2021/07/02 04:34:52;;;;;;;0.40;0.40;;;17.70;99.90;;;;;;5030991;28;20196;-85
2021/07/02 04:37:18;;;;;;;0.63;0.63;;;18.00;99.90;;;;;;5055478;28;20177;-86
2021/07/02 04:39:44;;;;;;;0.70;0.70;;;18.10;99.90;;;;;;5055370;28;20696;-85
2021/07/02 04:42:09;;;;;;;0.40;0.40;;;17.90;99.90;;;;;;5038157;28;20276;-85
2021/07/02 04:44:37;;;;;;;0.20;0.20;;;18.00;99.90;;;;;;5039384;28;20189;-85
2021/07/02 04:47:04;;;;;;;1.10;1.03;;;18.20;99.90;;;;;;5064070;28;20239;-85
2021/07/02 04:49:29;;;;;;;0.43;0.43;;;18.30;99.90;;;;;;5037011;28;20622;-89
2021/07/02 04:51:59;;;;;;;0.17;0.17;;;18.60;99.90;;;;;;5040052;28;20219;-85
2021/07/02 04:54:25;;;;;;;0.50;0.50;;;18.70;99.90;;;;;;5053669;28;20185;-87
2021/07/02 04:56:52;;;;;;;0.37;0.37;;;18.80;99.90;;;;;;5019463;28;20258;-86
2021/07/02 04:59:19;;;;;;;1.10;0.50;;;18.90;99.90;;;;;;5034684;28;20186;-86
2021/07/02 05:01:46;;;;;;;0.37;0.37;;;18.80;99.90;;;;;;5047399;28;20243;-87
2021/07/02 05:04:12;;;;;;;1.10;0.47;;;18.80;99.90;;;;;;5036173;28;20213;-86
2021/07/02 05:06:38;;;;;;;1.77;0.60;;;18.70;99.90;;;;;;5035644;28;20213;-86
2021/07/02 05:09:05;;;;;;;0.20;0.20;;;18.70;99.90;;;;;;5057758;28;20263;-84
2021/07/02 05:11:32;;;;;;;0.60;0.43;;;18.70;99.90;;;;;;5058935;28;20181;-85
2021/07/02 05:13:57;;;;;;;0.77;0.77;;;18.70;99.90;;;;;;5043294;28;20262;-85
2021/07/02 05:16:23;;;;;;;0.53;0.50;;;18.70;99.90;;;;;;5059158;28;20208;-87
2021/07/02 05:18:48;;;;;;;1.43;1.33;;;18.70;99.90;;;;;;5072003;28;20182;-84
2021/07/02 05:21:14;;;;;;;0.43;0.30;;;18.90;99.90;;;;;;5061386;28;20190;-82
2021/07/02 05:23:40;;;;;;;0.50;0.50;;;19.10;99.90;;;;;;5032781;28;20340;-84
2021/07/02 05:26:05;;;;;;;0.93;0.53;;;19.20;99.90;;;;;;5051550;28;20181;-85
2021/07/02 05:28:33;;;;;;;0.70;0.70;;;19.30;99.90;;;;;;5038398;28;20212;-83
2021/07/02 05:30:59;;;;;;;0.30;0.30;;;19.20;99.90;;;;;;5053839;28;20182;-86
2021/07/02 05:33:24;;;;;;;0.33;0.33;;;19.30;99.90;;;;;;5045974;28;20193;-85
2021/07/02 05:35:50;;;;;;;0.83;0.83;;;19.00;99.90;;;;;;5048046;28;20185;-86
2021/07/02 05:38:16;;;;;;;0.40;0.40;;;19.00;99.90;;;;;;5029523;28;20191;-86
2021/07/02 05:40:42;;;;;;;0.30;0.30;;;19.00;99.90;;;;;;5039718;28;20327;-85
2021/07/02 05:43:07;;;;;;;2.13;0.40;;;19.00;99.90;;;;;;5036489;28;20288;-85
2021/07/02 05:45:33;;;;;;;1.83;1.33;;;18.90;99.90;;;;;;5054810;28;20266;-86
2021/07/02 05:48:00;;;;;;;0.80;0.80;;;18.80;99.90;;;;;;5056893;28;20285;-86
2021/07/02 05:50:27;;;;;;;0.10;0.10;;;18.90;99.90;;;;;;5058347;28;20184;-86
2021/07/02 05:52:55;;;;;;;0.73;0.70;;;18.90;99.90;;;;;;5036782;28;20197;-86
2021/07/02 05:55:21;;;;;;;1.57;0.70;;;18.80;99.90;;;;;;5036045;28;20212;-86
2021/07/02 05:57:47;;;;;;;1.07;0.80;;;18.80;99.90;;;;;;5053532;28;20261;-85
2021/07/02 06:00:14;;;;;;;0.50;0.50;;;18.80;99.90;;;;;;5037232;28;20281;-86
2021/07/02 06:02:39;;;;;;;0.73;0.73;;;18.80;99.90;;;;;;5054000;28;20204;-86
2021/07/02 06:05:06;;;;;;;0.60;0.60;;;18.70;99.90;;;;;;5039213;28;20190;-86
2021/07/02 06:07:55;;;;;;;3.60;0.97;;;18.50;99.90;;;;;;5057013;28;20751;-86
2021/07/02 06:10:23;;;;;;;0.60;0.60;;;18.50;99.90;;;;;;5057432;28;20680;-86
2021/07/02 06:12:49;;;;;;;1.13;0.50;;;18.50;99.90;;;;;;5069299;28;20221;-87
2021/07/02 06:15:18;;;;;;;0.73;0.73;;;18.50;99.90;;;;;;5054442;28;20183;-87
2021/07/02 06:17:45;;;;;;;1.47;1.20;;;18.50;99.90;;;;;;5040303;28;20209;-85
2021/07/02 06:20:22;;;;;;;0.40;0.40;;;18.60;99.90;;;;;;5053298;28;20177;-86
2021/07/02 06:22:48;;;;;;;0.47;0.47;;;18.70;99.90;;;;;;5048669;28;20569;-86
2021/07/02 06:25:14;;;;;;;1.27;0.70;;;18.80;99.90;;;;;;5054695;28;20234;-86
2021/07/02 06:27:40;;;;;;;0.37;0.33;;;18.90;99.90;;;;;;5036398;28;20185;-86
2021/07/02 06:30:08;;;;;;;2.00;1.20;;;19.00;99.90;;;;;;5054344;28;20181;-86
2021/07/02 06:32:34;;;;;;;0.83;0.83;;;19.00;99.90;;;;;;5053161;28;20251;-87
2021/07/02 06:35:00;;;;;;;0.63;0.63;;;19.00;99.90;;;;;;5054153;28;20181;-86
2021/07/02 06:37:26;;;;;;;0.70;0.70;;;18.80;99.90;;;;;;5035514;28;20174;-87
2021/07/02 06:39:52;;;;;;;1.33;1.33;;;18.70;99.90;;;;;;5032652;28;20187;-87
2021/07/02 06:42:18;;;;;;;0.60;0.50;;;18.50;99.90;;;;;;5051809;28;20208;-86
2021/07/02 06:44:43;;;;;;;1.07;0.70;;;18.70;99.90;;;;;;5056951;28;20558;-86
2021/07/02 06:47:09;;;;;;;0.50;0.50;;;18.90;99.90;;;;;;5037991;28;20189;-87
2021/07/02 06:49:38;;;;;;;0.83;0.70;;;18.90;99.90;;;;;;5038709;28;20274;-86
2021/07/02 06:52:04;;;;;;;0.53;0.53;;;19.00;99.90;;;;;;5053544;28;20284;-85
2021/07/02 06:54:30;;;;;;;0.63;0.53;;;19.00;99.90;;;;;;5053006;28;20189;-85
2021/07/02 06:57:04;;;;;;;1.57;1.20;;;19.10;99.90;;;;;;5053276;28;20185;-85
2021/07/02 06:59:32;;;;;;;0.87;0.60;;;19.10;99.90;;;;;;5034674;28;20251;-85
2021/07/02 07:02:00;;;;;;;0.90;0.50;;;19.20;99.90;;;;;;5034868;28;20188;-86
2021/07/02 07:04:34;;;;;;;1.50;0.70;;;19.40;99.90;;;;;;5033426;28;20192;-86
2021/07/02 07:07:03;;;;;;;1.03;0.77;;;19.60;99.90;;;;;;5046049;28;20258;-85
2021/07/02 07:09:30;;;;;;;0.40;0.40;;;19.80;99.90;;;;;;5053837;28;20293;-85
2021/07/02 07:11:56;;;;;;;1.23;1.20;;;20.00;99.90;;;;;;5037328;28;20174;-86
2021/07/02 07:14:23;;;;;;;1.03;0.70;;;20.10;99.90;;;;;;5053707;28;20197;-84
2021/07/02 07:16:48;;;;;;;1.13;0.53;;;20.20;99.90;;;;;;5043981;28;20177;-85
2021/07/02 07:19:15;;;;;;;0.50;0.50;;;20.50;99.90;;;;;;5043343;28;20727;-86
2021/07/02 07:21:40;;;;;;;0.80;0.80;;;20.40;99.90;;;;;;5052544;28;20186;-86
2021/07/02 07:24:06;;;;;;;1.50;1.23;;;20.40;99.90;;;;;;5051436;28;20265;-86
2021/07/02 07:26:32;;;;;;;0.60;0.60;;;20.50;99.90;;;;;;5042271;28;20182;-86
2021/07/02 07:28:58;;;;;;;1.67;0.97;;;20.60;99.90;;;;;;5038189;28;20210;-86
2021/07/02 07:31:24;;;;;;;0.60;0.60;;;20.50;99.90;;;;;;5034491;28;20201;-86
2021/07/02 07:33:51;;;;;;;1.70;1.20;;;20.60;99.90;;;;;;5067982;28;20205;-87
2021/07/02 07:36:19;;;;;;;0.60;0.50;;;20.50;99.90;;;;;;5035845;28;20177;-86
2021/07/02 07:38:45;;;;;;;0.47;0.40;;;20.50;99.90;;;;;;5050664;28;20260;-86
2021/07/02 07:41:10;;;;;;;0.87;0.47;;;20.70;99.90;;;;;;5035843;28;20193;-86
2021/07/02 07:43:36;;;;;;;0.90;0.70;;;20.70;99.90;;;;;;5034352;28;20693;-87
2021/07/02 07:46:05;;;;;;;0.70;0.70;;;20.90;99.90;;;;;;5034565;28;20181;-86
2021/07/02 07:48:31;;;;;;;0.70;0.70;;;21.00;99.90;;;;;;5033952;28;20692;-86
2021/07/02 07:51:13;;;;;;;1.93;0.93;;;21.20;99.90;;;;;;5035109;28;20206;-86
2021/07/02 07:53:39;;;;;;;0.50;0.47;;;21.10;99.90;;;;;;5033701;28;20193;-86
2021/07/02 07:56:10;;;;;;;1.60;0.83;;;21.20;99.90;;;;;;5030252;28;20188;-86
2021/07/02 07:58:36;;;;;;;0.77;0.77;;;21.20;99.90;;;;;;5053221;28;20185;-85
2021/07/02 08:01:03;;;;;;;0.43;0.43;;;21.20;99.90;;;;;;5052671;28;20182;-86
2021/07/02 08:03:29;;;;;;;0.87;0.87;;;21.50;99.90;;;;;;5036076;28;20239;-86
2021/07/02 08:05:55;;;;;;;0.67;0.67;;;21.10;99.90;;;;;;5053728;28;20181;-87
2021/07/02 08:08:20;;;;;;;0.80;0.80;;;21.60;99.90;;;;;;5053981;28;20630;-86
2021/07/02 08:10:46;;;;;;;1.60;0.77;;;21.60;99.90;;;;;;5039297;28;20525;-85
2021/07/02 08:13:19;;;;;;;0.77;0.77;;;21.90;99.90;;;;;;5051786;28;20587;-86
2021/07/02 08:16:04;;;;;;;0.73;0.73;;;22.10;99.90;;;;;;5040455;28;20197;-85
2021/07/02 08:18:31;;;;;;;2.00;1.17;;;22.00;99.90;;;;;;5034521;28;20181;-86
2021/07/02 08:20:58;;;;;;;0.83;0.60;;;22.10;99.90;;;;;;5062617;28;20260;-86
2021/07/02 08:23:24;;;;;;;2.77;0.80;;;22.00;99.90;;;;;;5038799;28;20196;-86
2021/07/02 08:25:51;;;;;;;0.73;0.73;;;22.10;99.90;;;;;;5049270;28;20247;-86
2021/07/02 08:31:25;;;;;;;1.30;1.20;;;21.30;99.90;;;;;;5053988;28;20263;-85
2021/07/02 08:33:51;;;;;;;0.97;0.97;;;21.50;99.90;;;;;;5033557;28;20244;-86
2021/07/02 08:36:19;;;;;;;1.20;0.87;;;21.60;99.90;;;;;;5034451;28;20182;-85
2021/07/02 08:38:44;;;;;;;1.07;0.97;;;21.60;99.90;;;;;;5034638;28;20272;-86
2021/07/02 08:41:25;;;;;;;0.20;0.20;;;22.00;99.90;;;;;;5041910;28;20319;-86
2021/07/02 08:43:51;;;;;;;1.13;0.63;;;22.50;99.90;;;;;;5050998;28;20201;-86
2021/07/02 08:46:21;;;;;;;0.53;0.53;;;22.40;99.90;;;;;;5044781;28;20188;-86
2021/07/02 08:48:48;;;;;;;0.63;0.63;;;22.60;99.90;;;;;;5034586;28;20715;-85
2021/07/02 08:51:14;;;;;;;1.10;1.00;;;22.60;99.90;;;;;;5052249;28;20178;-86
2021/07/02 08:53:41;;;;;;;0.60;0.60;;;22.80;99.90;;;;;;5052116;28;20198;-85
2021/07/02 08:56:06;;;;;;;0.63;0.63;;;22.80;99.90;;;;;;5033842;28;20227;-87
2021/07/02 08:58:33;;;;;;;2.27;0.80;;;22.90;99.90;;;;;;5034286;28;20738;-86
2021/07/02 09:01:08;;;;;;;1.83;0.87;;;22.70;99.90;;;;;;5052018;28;20214;-86
2021/07/02 09:03:36;;;;;;;0.60;0.60;;;22.70;99.90;;;;;;5034204;28;20266;-86
2021/07/02 09:06:09;;;;;;;0.53;0.53;;;22.60;99.90;;;;;;5052826;28;20235;-85
2021/07/02 09:08:36;;;;;;;0.93;0.67;;;22.80;99.90;;;;;;5043860;28;20214;-86
2021/07/02 09:11:03;;;;;;;1.57;0.47;;;22.60;99.90;;;;;;5038712;28;20174;-86
2021/07/02 09:13:43;;;;;;;0.63;0.63;;;22.50;99.90;;;;;;5032632;28;20580;-87
2021/07/02 09:16:37;;;;;;;0.50;0.50;;;22.60;99.90;;;;;;5051090;28;20199;-87
2021/07/02 09:19:23;;;;;;;0.77;0.40;;;22.90;99.90;;;;;;5053173;28;20189;-86
2021/07/02 09:21:49;;;;;;;0.60;0.60;;;23.00;99.90;;;;;;5055462;28;20210;-86
2021/07/02 09:24:38;;;;;;;0.87;0.60;;;22.90;99.90;;;;;;5054712;28;20672;-86
2021/07/02 09:27:24;;;;;;;0.50;0.40;;;23.50;99.90;;;;;;5037154;28;20192;-86
2021/07/02 09:30:06;;;;;;;1.07;0.60;;;23.70;99.90;;;;;;5061151;28;20216;-86
2021/07/02 09:32:32;;;;;;;0.63;0.60;;;23.70;99.90;;;;;;5041554;28;20263;-86
2021/07/02 09:35:01;;;;;;;0.43;0.43;;;23.50;99.90;;;;;;5039406;28;20178;-86
2021/07/02 09:37:38;;;;;;;0.80;0.77;;;23.10;99.90;;;;;;5039543;28;20178;-86
2021/07/02 09:40:23;;;;;;;0.63;0.60;;;23.00;99.90;;;;;;5039377;28;20284;-86
2021/07/02 09:43:09;;;;;;;0.33;0.33;;;23.40;99.90;;;;;;5035037;28;20200;-87
2021/07/02 09:45:45;;;;;;;0.53;0.53;;;23.40;99.90;;;;;;5055460;28;20173;-86
2021/07/02 09:48:12;;;;;;;0.57;0.47;;;23.60;99.90;;;;;;5059550;28;20212;-86
2021/07/02 09:50:50;;;;;;;0.40;0.40;;;23.60;99.90;;;;;;5051700;28;20264;-87
2021/07/02 09:53:18;;;;;;;1.03;1.03;;;23.70;99.90;;;;;;5039997;28;22393;-86
2021/07/02 09:55:53;;;;;;;1.00;0.83;;;23.50;99.90;;;;;;5055230;28;20211;-86
2021/07/02 09:58:21;;;;;;;1.30;0.60;;;23.50;99.90;;;;;;5033300;28;20190;-86
2021/07/02 10:00:52;;;;;;;0.87;0.60;;;23.30;99.90;;;;;;5029454;28;20604;-86
2021/07/02 10:03:29;;;;;;;0.73;0.73;;;23.30;99.90;;;;;;5038648;28;20258;-86
2021/07/02 10:05:57;;;;;;;0.90;0.70;;;23.40;99.90;;;;;;5059485;28;20238;-86
2021/07/02 10:08:36;;;;;;;2.17;1.53;;;23.60;99.90;;;;;;5034610;28;20704;-86
2021/07/02 10:11:04;;;;;;;1.60;0.70;;;23.90;99.90;;;;;;5039019;28;20269;-86
2021/07/02 10:13:42;;;;;;;0.93;0.70;;;24.10;99.90;;;;;;5037352;28;20233;-86
2021/07/02 10:16:09;;;;;;;1.23;1.03;;;23.80;99.90;;;;;;5058256;28;20559;-86
2021/07/02 10:18:41;;;;;;;0.67;0.67;;;23.70;99.90;;;;;;5063810;28;20269;-86
2021/07/02 10:21:07;;;;;;;0.67;0.67;;;23.70;99.90;;;;;;5037142;28;20190;-86
2021/07/02 10:23:41;;;;;;;0.80;0.70;;;23.60;99.90;;;;;;5036893;28;20639;-86
2021/07/02 10:26:08;;;;;;;0.80;0.80;;;23.40;99.90;;;;;;5054010;28;20189;-87
2021/07/02 10:28:38;;;;;;;1.20;1.10;;;23.10;99.90;;;;;;5054326;28;20248;-86
2021/07/02 10:31:07;;;;;;;0.40;0.40;;;23.00;99.90;;;;;;5036251;28;20851;-85
2021/07/02 10:33:34;;;;;;;0.87;0.70;;;23.00;99.90;;;;;;5051139;28;20297;-86
2021/07/02 10:36:04;;;;;;;1.07;1.00;;;23.00;99.90;;;;;;5057064;28;20185;-85
2021/07/02 10:38:50;;;;;;;0.90;0.67;;;23.10;99.90;;;;;;5058326;28;20209;-85
2021/07/02 10:41:20;;;;;;;0.80;0.80;;;23.20;99.90;;;;;;5037877;28;20453;-85
2021/07/02 10:44:07;;;;;;;0.83;0.83;;;23.30;99.90;;;;;;5036974;28;20202;-85
2021/07/02 10:46:55;;;;;;;0.50;0.50;;;23.70;99.90;;;;;;5059337;28;20241;-86
2021/07/02 10:49:37;;;;;;;1.10;0.90;;;24.10;99.90;;;;;;5039903;28;20260;-85
2021/07/02 10:52:21;;;;;;;2.70;1.00;;;24.10;99.90;;;;;;5065737;28;20189;-85
2021/07/02 10:54:47;;;;;;;1.43;1.33;;;24.50;99.90;;;;;;5061069;28;20242;-85
2021/07/02 10:57:14;;;;;;;0.80;0.80;;;24.40;99.90;;;;;;5037585;28;20189;-85
2021/07/02 10:59:41;;;;;;;0.80;0.80;;;24.70;99.90;;;;;;5055255;28;20189;-86
2021/07/02 11:02:09;;;;;;;7.27;1.40;;;24.80;99.90;;;;;;5038882;28;20228;-85
2021/07/02 11:04:45;;;;;;;1.20;1.10;;;25.10;99.90;;;;;;5054929;28;20209;-85
2021/07/02 11:07:20;;;;;;;0.80;0.80;;;24.90;99.90;;;;;;5041015;28;20673;-85
2021/07/02 11:12:17;;;;;;;1.40;1.23;;;24.50;99.90;;;;;;5054050;28;20214;-85
2021/07/02 11:14:54;;;;;;;1.83;1.10;;;24.20;99.90;;;;;;5039233;28;20287;-85
2021/07/02 11:17:46;;;;;;;1.57;1.33;;;24.60;99.90;;;;;;5044306;28;20190;-84
2021/07/02 11:20:17;;;;;;;1.57;1.20;;;25.10;99.90;;;;;;5034163;28;20190;-85
2021/07/02 11:22:55;;;;;;;1.93;1.20;;;25.50;99.90;;;;;;5042788;28;20264;-85
2021/07/02 11:25:24;;;;;;;1.20;1.10;;;25.50;99.90;;;;;;5054552;28;20316;-86
2021/07/02 11:28:02;;;;;;;7.13;0.93;;;24.90;99.90;;;;;;5035775;28;20186;-85
2021/07/02 11:30:39;;;;;;;1.30;1.03;;;24.60;99.90;;;;;;5063877;28;20336;-86
2021/07/02 11:33:08;;;;;;;1.00;0.93;;;24.50;99.90;;;;;;5039512;28;20230;-84
2021/07/02 11:35:35;;;;;;;1.83;1.73;;;24.30;99.90;;;;;;5036195;28;20205;-84
2021/07/02 11:38:11;;;;;;;1.67;1.30;;;24.20;99.90;;;;;;5048136;28;20199;-85
2021/07/02 11:40:55;;;;;;;1.20;0.80;;;24.40;99.90;;;;;;5052487;28;20197;-85
2021/07/02 11:43:32;;;;;;;0.90;0.90;;;24.50;99.90;;;;;;5035857;28;20204;-85
2021/07/02 11:46:02;;;;;;;1.63;1.20;;;24.40;99.90;;;;;;5042057;28;20307;-85
2021/07/02 11:48:32;;;;;;;1.20;1.10;;;24.60;99.90;;;;;;5055624;28;20205;-85
2021/07/02 11:51:09;;;;;;;1.23;0.93;;;24.90;99.90;;;;;;5053839;28;20186;-85
2021/07/02 11:53:43;;;;;;;0.93;0.93;;;24.90;99.90;;;;;;5034669;28;20780;-85
2021/07/02 11:56:12;;;;;;;2.67;1.03;;;24.90;99.90;;;;;;5037515;28;20192;-85
2021/07/02 11:58:38;;;;;;;1.10;1.00;;;24.60;99.90;;;;;;5054104;28;20227;-85
2021/07/02 12:01:09;;;;;;;1.17;0.70;;;24.60;99.90;;;;;;5055953;28;20189;-85
2021/07/02 12:03:45;;;;;;;1.63;0.90;;;24.50;99.90;;;;;;5041734;28;20232;-85
2021/07/02 12:06:17;;;;;;;1.33;1.10;;;24.70;99.90;;;;;;5040913;28;20216;-85
2021/07/02 12:08:48;;;;;;;1.33;1.10;;;24.60;99.90;;;;;;5047635;28;20271;-85
2021/07/02 12:11:14;;;;;;;1.10;1.00;;;24.70;99.90;;;;;;5059015;28;20224;-85
2021/07/02 12:13:40;;;;;;;1.27;1.07;;;24.90;99.90;;;;;;5045678;28;20206;-86
2021/07/02 12:16:08;;;;;;;0.60;0.60;;;24.80;99.90;;;;;;5067657;28;20562;-86
2021/07/02 12:18:36;;;;;;;0.83;0.83;;;24.80;99.90;;;;;;5062336;28;20276;-86
2021/07/02 12:21:05;;;;;;;0.60;0.50;;;24.50;99.90;;;;;;5037469;28;20703;-88
2021/07/02 12:23:36;;;;;;;1.23;1.20;;;24.50;99.90;;;;;;5034717;28;20210;-87
2021/07/02 12:26:20;;;;;;;0.90;0.90;;;24.20;99.90;;;;;;5039413;28;20193;-87
2021/07/02 12:28:55;;;;;;;0.90;0.90;;;23.90;99.90;;;;;;5034613;28;20213;-86
2021/07/02 12:31:27;;;;;;;0.57;0.57;;;23.70;99.90;;;;;;5034330;28;20185;-86
2021/07/02 12:33:53;;;;;;;1.27;1.10;;;23.60;99.90;;;;;;5050201;28;20204;-87
2021/07/02 12:36:20;;;;;;;1.70;0.90;;;23.30;99.90;;;;;;5046061;28;20645;-87
2021/07/02 12:39:04;;;;;;;1.67;0.70;;;23.40;99.90;;;;;;5050972;28;20201;-86
2021/07/02 12:41:44;;;;;;;1.00;1.00;;;23.60;99.90;;;;;;5033022;28;20189;-86
2021/07/02 12:44:12;;;;;;;0.67;0.60;;;23.80;99.90;;;;;;5043729;28;20280;-87
2021/07/02 12:46:43;;;;;;;0.90;0.80;;;23.90;99.90;;;;;;5037522;28;20189;-89
2021/07/02 12:49:36;;;;;;;0.63;0.63;;;24.30;99.90;;;;;;5038886;28;20283;-87
2021/07/02 12:54:55;;;;;;;1.00;0.80;;;24.30;99.90;;;;;;5051370;28;20185;-88
2021/07/02 12:57:28;;;;;;;1.43;0.97;;;24.60;99.90;;;;;;5050725;28;20170;-85
2021/07/02 13:00:01;;;;;;;1.47;1.13;;;24.80;99.90;;;;;;5051161;28;20194;-87
2021/07/02 13:02:28;;;;;;;0.73;0.73;;;24.90;99.90;;;;;;5035796;28;20289;-86
2021/07/02 13:04:55;;;;;;;0.67;0.67;;;25.10;99.90;;;;;;5047922;28;20182;-86